Time;durP1;ratioP1;P1;durP2;ratioP2;P2;SDS_P1;SDS_P2;PMS_P1;PMS_P2;Temp;Humidity;BMP_temperature;BMP_pressure;BME280_temperature;BME280_humidity;BME280_pressure;Samples;Min_cycle;Max_cycle;Signal;HPM_P1;HPM_P2
2022/11/19 00:01:25;;;;;;;3.57;1.27;;;25.40;99.90;;;;;;5074844;28;20239;-69
2022/11/19 00:03:54;;;;;;;6.70;1.60;;;25.90;99.90;;;;;;5074624;28;20228;-70
2022/11/19 00:06:26;;;;;;;3.57;1.20;;;26.00;99.90;;;;;;5074826;28;20270;-71
2022/11/19 00:08:54;;;;;;;5.67;1.50;;;26.00;99.90;;;;;;5075236;28;20233;-71
2022/11/19 00:14:15;;;;;;;5.03;1.10;;;26.60;99.90;;;;;;5074319;28;20588;-71
2022/11/19 00:16:44;;;;;;;5.27;1.07;;;27.10;99.90;;;;;;5075079;28;20179;-69
2022/11/19 00:19:12;;;;;;;6.20;1.17;;;27.20;99.90;;;;;;5075049;28;20511;-67
2022/11/19 00:21:40;;;;;;;4.17;1.00;;;27.40;99.90;;;;;;5074477;28;20216;-71
2022/11/19 00:24:08;;;;;;;7.70;0.80;;;27.30;99.90;;;;;;5074488;28;20180;-69
2022/11/19 00:26:36;;;;;;;1.83;0.87;;;27.30;99.90;;;;;;5089952;28;20185;-69
2022/11/19 00:29:03;;;;;;;3.40;0.80;;;27.20;99.90;;;;;;5074446;28;20541;-69
2022/11/19 00:31:32;;;;;;;2.40;0.77;;;26.30;99.90;;;;;;5074487;28;20172;-69
2022/11/19 00:33:59;;;;;;;5.83;0.90;;;26.30;99.90;;;;;;5074417;28;20187;-69
2022/11/19 00:36:26;;;;;;;3.77;1.00;;;26.10;99.90;;;;;;5074140;28;20241;-70
2022/11/19 00:38:54;;;;;;;9.33;1.40;;;26.30;99.90;;;;;;5074239;28;20533;-72
2022/11/19 00:41:22;;;;;;;4.03;1.10;;;26.50;99.90;;;;;;5074438;28;20306;-70
2022/11/19 00:43:49;;;;;;;3.23;1.03;;;27.20;99.90;;;;;;5074337;28;20187;-70
2022/11/19 00:46:18;;;;;;;3.60;0.83;;;27.30;99.90;;;;;;5074239;28;20259;-69
2022/11/19 00:48:47;;;;;;;5.37;1.10;;;27.20;99.90;;;;;;5073956;28;20171;-69
2022/11/19 00:51:16;;;;;;;9.40;1.30;;;27.20;99.90;;;;;;5074070;28;20203;-68
2022/11/19 00:53:44;;;;;;;3.77;0.93;;;27.50;99.90;;;;;;5074502;28;20176;-68
2022/11/19 00:56:14;;;;;;;5.63;1.17;;;27.20;99.90;;;;;;5073713;28;20176;-69
2022/11/19 00:58:42;;;;;;;11.83;1.10;;;26.60;99.90;;;;;;5073408;28;20172;-68
2022/11/19 01:01:11;;;;;;;2.27;0.80;;;26.80;99.90;;;;;;5073604;28;20239;-69
2022/11/19 01:03:41;;;;;;;6.07;1.10;;;26.70;99.90;;;;;;5073321;28;20565;-68
2022/11/19 01:06:09;;;;;;;5.10;0.80;;;26.20;99.90;;;;;;5073487;28;20186;-68
2022/11/19 01:08:37;;;;;;;7.50;1.00;;;25.70;99.90;;;;;;5073481;28;20171;-68
2022/11/19 01:11:10;;;;;;;4.30;0.93;;;26.00;99.90;;;;;;5073512;28;20180;-68
2022/11/19 01:13:37;;;;;;;4.00;0.97;;;26.20;99.90;;;;;;5073526;28;20180;-68
2022/11/19 01:16:22;;;;;;;2.00;1.00;;;26.60;99.90;;;;;;5073337;28;20181;-69
2022/11/19 01:18:50;;;;;;;3.07;0.80;;;26.90;99.90;;;;;;5073423;28;20183;-69
2022/11/19 01:21:20;;;;;;;3.83;1.30;;;26.80;99.90;;;;;;5073385;28;20223;-70
2022/11/19 01:23:49;;;;;;;5.87;1.23;;;27.60;99.90;;;;;;5073423;28;20557;-69
2022/11/19 01:26:17;;;;;;;2.37;0.90;;;28.10;99.90;;;;;;5073421;28;20184;-68
2022/11/19 01:28:45;;;;;;;7.03;1.37;;;28.50;99.50;;;;;;5073518;28;20187;-69
2022/11/19 01:31:22;;;;;;;1.90;0.90;;;28.30;99.70;;;;;;5073354;28;20183;-69
2022/11/19 01:33:50;;;;;;;13.63;1.67;;;28.10;99.90;;;;;;5073529;28;20176;-67
2022/11/19 01:36:20;;;;;;;6.27;1.03;;;28.50;99.90;;;;;;5073482;28;20180;-69
2022/11/19 01:38:50;;;;;;;2.60;0.90;;;28.30;99.80;;;;;;5073256;28;20230;-69
2022/11/19 01:41:27;;;;;;;2.57;0.90;;;27.90;99.50;;;;;;5073144;28;20669;-71
2022/11/19 01:44:21;;;;;;;5.00;0.83;;;28.50;99.90;;;;;;5088773;28;20183;-69
2022/11/19 01:46:49;;;;;;;4.50;0.90;;;29.20;98.00;;;;;;5061841;28;20199;-69
2022/11/19 01:49:18;;;;;;;4.30;1.00;;;28.90;93.90;;;;;;5073133;28;20658;-70
2022/11/19 01:52:00;;;;;;;4.63;1.07;;;29.10;93.90;;;;;;5072962;28;20175;-68
2022/11/19 01:54:40;;;;;;;6.47;1.33;;;28.90;92.20;;;;;;5071957;28;20195;-69
2022/11/19 01:57:12;;;;;;;4.77;1.00;;;28.60;96.80;;;;;;5088705;28;20180;-70
2022/11/19 01:59:42;;;;;;;5.00;0.80;;;29.00;95.30;;;;;;5073416;28;20211;-68
2022/11/19 02:02:10;;;;;;;8.33;1.50;;;29.30;95.40;;;;;;5072938;28;20240;-69
2022/11/19 02:04:39;;;;;;;3.10;0.93;;;28.90;94.00;;;;;;5072801;28;20586;-70
2022/11/19 02:07:09;;;;;;;6.37;1.30;;;28.80;92.20;;;;;;5073113;28;20660;-69
2022/11/19 02:09:37;;;;;;;4.17;1.33;;;28.60;96.80;;;;;;5088557;28;20176;-70
2022/11/19 02:12:07;;;;;;;5.67;1.27;;;29.00;97.00;;;;;;5075711;28;20634;-70
2022/11/19 02:15:00;;;;;;;4.33;0.87;;;29.20;92.30;;;;;;5076964;28;20665;-70
2022/11/19 02:17:45;;;;;;;4.73;0.97;;;29.60;96.10;;;;;;5077187;28;20263;-70
2022/11/19 02:20:31;;;;;;;4.37;0.90;;;29.30;90.10;;;;;;5092325;28;20298;-69
2022/11/19 02:23:34;;;;;;;4.03;0.83;;;29.00;91.80;;;;;;5076524;28;20653;-70
2022/11/19 02:26:08;;;;;;;3.67;1.00;;;29.00;96.30;;;;;;5092279;28;20176;-70
2022/11/19 02:28:43;;;;;;;3.73;1.00;;;29.00;93.10;;;;;;5076821;28;20258;-69
2022/11/19 02:31:18;;;;;;;2.63;0.90;;;29.00;92.70;;;;;;5076927;28;20600;-71
2022/11/19 02:34:17;;;;;;;2.33;0.80;;;28.70;90.90;;;;;;5092278;28;20210;-70
2022/11/19 02:36:55;;;;;;;6.10;0.77;;;29.00;98.20;;;;;;5067755;28;20263;-69
2022/11/19 02:39:35;;;;;;;7.27;1.13;;;29.10;86.50;;;;;;5076983;28;20176;-69
2022/11/19 02:42:41;;;;;;;4.53;1.10;;;28.80;88.30;;;;;;5076108;28;20251;-70
2022/11/19 02:45:37;;;;;;;3.10;0.80;;;29.00;83.50;;;;;;5076758;28;20501;-69
2022/11/19 02:48:30;;;;;;;2.00;0.57;;;29.20;85.90;;;;;;5073396;28;20544;-69
2022/11/19 02:51:01;;;;;;;4.63;0.87;;;29.60;87.60;;;;;;5076418;28;20279;-68
2022/11/19 02:53:29;;;;;;;5.23;1.00;;;29.70;87.50;;;;;;5076234;28;20246;-71
2022/11/19 02:56:11;;;;;;;2.17;0.70;;;30.00;80.40;;;;;;5076193;28;20172;-71
2022/11/19 03:04:31;;;;;;;3.10;0.60;;;30.70;70.60;;;;;;5075948;28;20234;-70
2022/11/19 03:07:11;;;;;;;3.37;1.13;;;30.90;77.80;;;;;;5075797;28;20180;-68
2022/11/19 03:09:48;;;;;;;13.17;2.53;;;30.30;97.20;;;;;;5076009;28;20172;-71
2022/11/19 03:12:48;;;;;;;7.23;1.90;;;29.80;99.90;;;;;;5075820;28;20255;-69
2022/11/19 03:18:38;;;;;;;6.23;1.33;;;28.70;99.90;;;;;;5076139;28;20207;-71
2022/11/19 03:21:28;;;;;;;7.87;1.27;;;28.60;99.90;;;;;;5075415;28;20689;-69
2022/11/19 03:24:11;;;;;;;5.37;1.30;;;28.80;99.90;;;;;;5075655;28;20172;-70
2022/11/19 03:26:53;;;;;;;7.23;1.70;;;28.70;99.90;;;;;;5076046;28;20179;-68
2022/11/19 03:29:22;;;;;;;6.13;1.33;;;28.90;99.90;;;;;;5075433;28;20637;-71
2022/11/19 03:31:58;;;;;;;7.47;1.43;;;29.30;99.90;;;;;;5075393;28;20215;-68
2022/11/19 03:34:28;;;;;;;5.37;1.77;;;29.50;99.90;;;;;;5075486;28;20176;-72
2022/11/19 03:37:00;;;;;;;3.60;1.10;;;29.60;99.90;;;;;;5075482;28;20218;-70
2022/11/19 03:39:28;;;;;;;11.60;1.40;;;29.30;99.90;;;;;;5075578;28;20657;-68
2022/11/19 03:41:57;;;;;;;8.00;1.53;;;28.80;99.90;;;;;;5074949;28;20215;-69
2022/11/19 03:44:33;;;;;;;8.83;1.37;;;28.40;99.90;;;;;;5075296;28;20179;-69
2022/11/19 03:47:10;;;;;;;8.17;1.23;;;28.50;99.90;;;;;;5075222;28;20180;-69
2022/11/19 03:49:42;;;;;;;9.03;1.60;;;28.40;99.90;;;;;;5075162;28;20180;-69
2022/11/19 03:52:21;;;;;;;5.60;1.70;;;28.30;99.90;;;;;;5075104;28;20168;-69
2022/11/19 03:54:49;;;;;;;7.97;1.57;;;28.60;99.90;;;;;;5075312;28;20641;-69
2022/11/19 03:57:20;;;;;;;6.40;1.30;;;28.70;99.90;;;;;;5075159;28;20172;-68
2022/11/19 03:59:48;;;;;;;8.47;1.33;;;28.60;99.90;;;;;;5075173;28;20176;-70
2022/11/19 04:02:16;;;;;;;4.03;1.17;;;28.60;99.90;;;;;;5073529;28;20319;-69
2022/11/19 04:04:43;;;;;;;8.87;1.67;;;28.90;99.90;;;;;;5090437;28;20235;-70
2022/11/19 04:07:14;;;;;;;5.33;1.43;;;29.10;99.90;;;;;;5090385;28;20176;-72
2022/11/19 04:09:42;;;;;;;10.10;1.60;;;28.80;99.90;;;;;;5074870;28;20176;-70
2022/11/19 04:12:18;;;;;;;4.17;1.13;;;29.00;99.90;;;;;;5074555;28;20218;-69
2022/11/19 04:14:47;;;;;;;9.50;1.43;;;28.80;99.90;;;;;;5074749;28;20263;-69
2022/11/19 04:17:15;;;;;;;4.90;1.43;;;28.60;99.90;;;;;;5074705;28;20172;-70
2022/11/19 04:19:43;;;;;;;6.27;1.20;;;28.50;99.90;;;;;;5074670;28;20214;-69
2022/11/19 04:22:10;;;;;;;4.67;0.93;;;28.50;99.90;;;;;;5074324;28;20624;-69
2022/11/19 04:24:38;;;;;;;11.30;2.00;;;28.60;99.90;;;;;;5074640;28;20172;-70
2022/11/19 04:27:05;;;;;;;7.33;1.63;;;28.80;99.90;;;;;;5074312;28;20661;-69
2022/11/19 04:29:33;;;;;;;5.73;1.30;;;28.80;99.90;;;;;;5074391;28;20585;-69
2022/11/19 04:32:00;;;;;;;6.13;1.27;;;29.00;99.90;;;;;;5074304;28;20167;-69
2022/11/19 04:34:28;;;;;;;4.67;1.30;;;28.90;99.90;;;;;;5073479;28;20179;-69
2022/11/19 04:36:55;;;;;;;7.00;1.30;;;29.10;99.90;;;;;;5074244;28;20171;-69
2022/11/19 04:39:23;;;;;;;7.70;1.33;;;28.80;99.90;;;;;;5074586;28;20172;-68
2022/11/19 04:41:50;;;;;;;7.87;1.40;;;29.00;99.90;;;;;;5074077;28;20208;-71
2022/11/19 04:44:17;;;;;;;8.23;1.67;;;29.30;99.90;;;;;;5074085;28;20168;-69
2022/11/19 04:46:45;;;;;;;5.70;1.20;;;28.60;99.90;;;;;;5073863;28;20182;-70
2022/11/19 04:49:13;;;;;;;7.40;1.50;;;28.20;99.90;;;;;;5074142;28;20195;-70
2022/11/19 04:51:40;;;;;;;8.87;1.50;;;27.80;99.90;;;;;;5072510;28;20191;-70
2022/11/19 04:54:07;;;;;;;4.53;1.20;;;27.70;99.90;;;;;;5074136;28;20190;-68
2022/11/19 04:56:36;;;;;;;5.80;1.50;;;27.80;99.90;;;;;;5073954;28;20187;-69
2022/11/19 04:59:04;;;;;;;2.13;1.00;;;27.50;99.90;;;;;;5072658;28;20199;-68
2022/11/19 05:01:32;;;;;;;8.40;1.53;;;27.40;99.90;;;;;;5073360;28;20211;-69
2022/11/19 05:03:59;;;;;;;9.37;1.47;;;27.30;99.90;;;;;;5073254;28;20631;-68
2022/11/19 05:06:27;;;;;;;6.63;1.70;;;27.20;99.90;;;;;;5089259;28;20530;-70
2022/11/19 05:08:54;;;;;;;5.73;1.23;;;27.40;99.90;;;;;;5073662;28;20255;-69
2022/11/19 05:11:22;;;;;;;7.67;1.80;;;27.90;99.90;;;;;;5073555;28;20262;-69
2022/11/19 05:13:49;;;;;;;5.53;1.20;;;28.10;99.90;;;;;;5073769;28;20176;-69
2022/11/19 05:16:17;;;;;;;6.33;1.43;;;28.30;99.90;;;;;;5073994;28;20661;-68
2022/11/19 05:18:44;;;;;;;5.23;1.43;;;28.30;99.90;;;;;;5073882;28;20172;-69
2022/11/19 05:21:11;;;;;;;7.63;1.67;;;28.60;99.90;;;;;;5073801;28;20211;-70
2022/11/19 05:23:39;;;;;;;6.70;1.37;;;28.20;99.90;;;;;;5073415;28;20642;-68
2022/11/19 05:26:10;;;;;;;7.47;1.57;;;27.60;99.90;;;;;;5073401;28;20176;-68
2022/11/19 05:28:38;;;;;;;6.30;1.13;;;27.30;99.90;;;;;;5073428;28;20267;-69
2022/11/19 05:31:06;;;;;;;14.40;2.13;;;27.40;99.90;;;;;;5089024;28;20186;-69
2022/11/19 05:33:33;;;;;;;7.10;1.57;;;27.60;99.90;;;;;;5073533;28;20188;-70
2022/11/19 05:36:01;;;;;;;5.83;1.67;;;27.70;99.90;;;;;;5089078;28;20184;-69
2022/11/19 05:38:29;;;;;;;9.20;2.23;;;28.00;99.90;;;;;;5073265;28;20207;-68
2022/11/19 05:40:57;;;;;;;7.73;1.50;;;27.70;99.90;;;;;;5073315;28;20218;-68
2022/11/19 05:43:24;;;;;;;9.47;1.60;;;27.80;99.90;;;;;;5073348;28;20262;-69
2022/11/19 05:45:51;;;;;;;4.80;1.47;;;27.70;99.90;;;;;;5073327;28;20180;-69
2022/11/19 05:48:19;;;;;;;12.40;2.10;;;27.50;99.90;;;;;;5088882;28;20279;-68
2022/11/19 05:50:46;;;;;;;6.57;1.50;;;27.60;99.90;;;;;;5072972;28;20198;-68
2022/11/19 05:53:14;;;;;;;8.17;1.33;;;27.50;99.90;;;;;;5072939;28;20616;-68
2022/11/19 05:55:41;;;;;;;9.03;2.27;;;27.40;99.90;;;;;;5072948;28;20254;-68
2022/11/19 05:58:08;;;;;;;9.37;1.63;;;27.50;99.90;;;;;;5072915;28;20172;-69
2022/11/19 06:00:37;;;;;;;9.80;1.90;;;27.60;99.90;;;;;;5072966;28;20602;-68
2022/11/19 06:03:04;;;;;;;11.33;2.27;;;27.60;99.90;;;;;;5072600;28;20314;-69
2022/11/19 06:05:32;;;;;;;11.07;1.27;;;27.20;99.90;;;;;;5072853;28;20171;-68
2022/11/19 06:07:59;;;;;;;4.93;1.60;;;26.80;99.90;;;;;;5072949;28;20683;-68
2022/11/19 06:10:26;;;;;;;9.93;1.60;;;26.50;99.90;;;;;;5072850;28;20176;-68
2022/11/19 06:12:54;;;;;;;8.67;1.87;;;26.70;99.90;;;;;;5072936;28;20621;-68
2022/11/19 06:15:21;;;;;;;8.97;2.67;;;26.70;99.90;;;;;;5073013;28;20172;-68
2022/11/19 06:17:48;;;;;;;10.50;1.17;;;26.70;99.90;;;;;;5072724;28;20274;-69
2022/11/19 06:20:16;;;;;;;5.27;1.63;;;26.50;99.90;;;;;;5072519;28;20629;-69
2022/11/19 06:22:43;;;;;;;8.47;2.40;;;26.30;99.90;;;;;;5072605;28;20180;-68
2022/11/19 06:25:11;;;;;;;10.33;2.00;;;26.10;99.90;;;;;;5072739;28;20622;-68
2022/11/19 06:27:39;;;;;;;8.90;2.13;;;25.90;99.90;;;;;;5072662;28;20176;-68
2022/11/19 06:30:07;;;;;;;5.07;1.67;;;25.70;99.90;;;;;;5072815;28;20172;-67
2022/11/19 06:32:36;;;;;;;6.07;1.40;;;25.70;99.90;;;;;;5072564;28;20184;-68
2022/11/19 06:35:04;;;;;;;8.00;1.53;;;25.70;99.90;;;;;;5072751;28;20172;-69
2022/11/19 06:37:31;;;;;;;7.33;2.13;;;25.60;99.90;;;;;;5072575;28;20536;-68
2022/11/19 06:39:59;;;;;;;3.87;1.60;;;25.40;99.90;;;;;;5072576;28;20172;-68
2022/11/19 06:42:35;;;;;;;7.00;1.60;;;25.50;99.90;;;;;;5072661;28;20229;-67
2022/11/19 06:45:08;;;;;;;7.87;1.50;;;25.70;99.90;;;;;;5072467;28;20203;-68
2022/11/19 06:47:36;;;;;;;5.97;1.90;;;25.70;99.90;;;;;;5072648;28;20509;-68
2022/11/19 06:50:05;;;;;;;8.17;2.63;;;25.40;99.90;;;;;;5072439;28;20548;-68
2022/11/19 06:52:32;;;;;;;14.07;5.70;;;25.40;99.90;;;;;;5072612;28;20176;-68
2022/11/19 06:55:00;;;;;;;12.93;2.13;;;25.30;99.90;;;;;;5072433;28;20610;-69
2022/11/19 06:57:27;;;;;;;11.60;2.33;;;25.30;99.90;;;;;;5073953;28;20183;-68
2022/11/19 06:59:55;;;;;;;9.03;2.13;;;25.40;99.90;;;;;;5076031;28;20168;-68
2022/11/19 07:02:22;;;;;;;10.53;1.83;;;25.50;99.90;;;;;;5075816;28;20215;-68
2022/11/19 07:04:49;;;;;;;13.03;2.17;;;25.60;99.90;;;;;;5075995;28;20293;-69
2022/11/19 07:07:17;;;;;;;10.67;2.10;;;25.50;99.90;;;;;;5076129;28;20578;-69
2022/11/19 07:09:45;;;;;;;5.07;1.90;;;25.30;99.90;;;;;;5075838;28;20172;-69
2022/11/19 07:12:12;;;;;;;5.83;1.93;;;25.20;99.90;;;;;;5075761;28;20195;-68
2022/11/19 07:14:39;;;;;;;9.90;2.73;;;25.00;99.90;;;;;;5075886;28;20214;-68
2022/11/19 07:17:07;;;;;;;11.23;1.87;;;24.70;99.90;;;;;;5076052;28;20172;-68
2022/11/19 07:19:35;;;;;;;12.27;2.27;;;24.60;99.90;;;;;;5075991;28;20247;-68
2022/11/19 07:22:03;;;;;;;22.50;1.93;;;24.70;99.90;;;;;;5075649;28;20210;-69
2022/11/19 07:24:30;;;;;;;8.60;1.67;;;24.50;99.90;;;;;;5075959;28;20179;-68
2022/11/19 07:26:57;;;;;;;5.50;2.20;;;24.50;99.90;;;;;;5075633;28;20270;-69
2022/11/19 07:29:25;;;;;;;6.37;1.80;;;24.40;99.90;;;;;;5075767;28;20179;-69
2022/11/19 07:31:52;;;;;;;9.70;2.03;;;24.30;99.90;;;;;;5075445;28;20180;-69
2022/11/19 07:34:20;;;;;;;5.70;1.60;;;24.20;99.90;;;;;;5075833;28;20305;-69
2022/11/19 07:36:49;;;;;;;13.00;1.70;;;24.10;99.90;;;;;;5075478;28;20178;-68
2022/11/19 07:39:17;;;;;;;11.60;2.20;;;24.00;99.90;;;;;;5075421;28;20240;-69
2022/11/19 07:44:29;;;;;;;14.33;2.40;;;23.70;99.90;;;;;;5075740;28;20518;-70
2022/11/19 07:46:57;;;;;;;9.33;2.30;;;23.60;99.90;;;;;;5075206;28;20182;-69
2022/11/19 07:49:25;;;;;;;7.83;1.70;;;23.60;99.90;;;;;;5075441;28;20545;-71
2022/11/19 07:51:54;;;;;;;15.10;2.40;;;23.60;99.90;;;;;;5075110;28;20182;-70
2022/11/19 07:54:21;;;;;;;12.87;1.93;;;23.60;99.90;;;;;;5075449;28;20176;-68
2022/11/19 07:56:49;;;;;;;10.77;2.27;;;23.60;99.90;;;;;;5075048;28;20183;-69
2022/11/19 07:59:16;;;;;;;10.03;2.20;;;23.40;99.90;;;;;;5075625;28;20261;-68
2022/11/19 08:01:44;;;;;;;13.73;2.00;;;23.40;99.90;;;;;;5074667;28;20206;-69
2022/11/19 08:04:11;;;;;;;9.83;2.03;;;23.30;99.90;;;;;;5074715;28;20263;-69
2022/11/19 08:06:39;;;;;;;11.47;2.20;;;23.40;99.90;;;;;;5074896;28;20665;-69
2022/11/19 08:09:07;;;;;;;18.50;2.40;;;23.40;99.90;;;;;;5073763;28;20179;-69
2022/11/19 08:11:34;;;;;;;12.77;2.63;;;23.40;99.90;;;;;;5074692;28;20187;-70
2022/11/19 08:14:01;;;;;;;7.20;2.10;;;23.30;99.90;;;;;;5074959;28;20172;-70
2022/11/19 08:19:17;;;;;;;7.67;2.00;;;23.20;99.90;;;;;;5075230;28;20206;-70
2022/11/19 08:21:46;;;;;;;12.63;2.63;;;23.10;99.90;;;;;;5074375;28;20239;-69
2022/11/19 08:24:15;;;;;;;8.67;1.93;;;23.10;99.90;;;;;;5074821;28;20180;-70
2022/11/19 08:26:43;;;;;;;7.17;1.97;;;23.10;99.90;;;;;;5074709;28;20217;-69
2022/11/19 08:29:13;;;;;;;11.10;2.33;;;23.20;99.90;;;;;;5074559;28;20179;-68
2022/11/19 08:31:45;;;;;;;10.60;2.43;;;23.10;99.90;;;;;;5074591;28;20191;-68
2022/11/19 08:34:13;;;;;;;11.13;2.53;;;23.10;99.90;;;;;;5074467;28;20180;-69
2022/11/19 08:36:40;;;;;;;10.67;2.80;;;23.10;99.90;;;;;;5074271;28;20682;-68
2022/11/19 08:39:08;;;;;;;12.20;2.73;;;23.00;99.90;;;;;;5074329;28;20182;-68
2022/11/19 08:44:21;;;;;;;13.23;2.90;;;22.90;99.90;;;;;;5074435;28;20711;-69
2022/11/19 08:46:49;;;;;;;10.43;2.90;;;22.80;99.90;;;;;;5075354;28;20183;-69
2022/11/19 08:49:16;;;;;;;13.83;3.33;;;22.80;99.90;;;;;;5074991;28;20215;-69
2022/11/19 08:51:44;;;;;;;10.07;2.53;;;22.80;99.90;;;;;;5074124;28;20183;-69
2022/11/19 08:54:12;;;;;;;9.40;2.80;;;22.80;99.90;;;;;;5074176;28;20679;-69
2022/11/19 08:56:39;;;;;;;14.73;2.50;;;22.80;99.90;;;;;;5074080;28;20212;-69
2022/11/19 08:59:07;;;;;;;11.27;2.93;;;22.70;99.90;;;;;;5074585;28;20539;-69
2022/11/19 09:01:34;;;;;;;9.00;2.80;;;22.70;99.90;;;;;;5073943;28;20657;-68
2022/11/19 09:04:02;;;;;;;10.47;3.07;;;22.60;99.90;;;;;;5073757;28;20222;-69
2022/11/19 09:06:29;;;;;;;7.97;2.60;;;22.50;99.90;;;;;;5073922;28;20188;-69
2022/11/19 09:08:57;;;;;;;10.10;2.53;;;22.40;99.90;;;;;;5073762;28;20626;-68
2022/11/19 09:11:24;;;;;;;12.37;2.80;;;22.60;99.90;;;;;;5073731;28;20648;-69
2022/11/19 09:13:52;;;;;;;8.90;2.57;;;22.50;99.90;;;;;;5073847;28;20171;-69
2022/11/19 09:16:20;;;;;;;10.33;3.33;;;22.40;99.90;;;;;;5073861;28;20194;-69
2022/11/19 09:18:47;;;;;;;10.10;2.70;;;22.40;99.90;;;;;;5072825;28;20191;-68
2022/11/19 09:21:14;;;;;;;13.50;3.03;;;22.40;99.90;;;;;;5073063;28;20215;-68
2022/11/19 09:23:42;;;;;;;16.43;3.30;;;22.20;99.90;;;;;;5073604;28;20172;-69
2022/11/19 09:26:15;;;;;;;11.77;3.27;;;22.10;99.90;;;;;;5073724;28;20546;-69
2022/11/19 09:28:43;;;;;;;9.80;2.57;;;22.00;99.90;;;;;;5073427;28;20633;-68
2022/11/19 09:31:17;;;;;;;10.50;2.57;;;22.00;99.90;;;;;;5073587;28;20544;-69
2022/11/19 09:33:47;;;;;;;12.27;3.33;;;21.90;99.90;;;;;;5073525;28;20236;-68
2022/11/19 09:36:15;;;;;;;11.00;2.63;;;21.90;99.90;;;;;;5073576;28;20249;-70
2022/11/19 09:38:43;;;;;;;14.70;2.73;;;21.90;99.90;;;;;;5073475;28;20184;-70
2022/11/19 09:41:36;;;;;;;9.13;1.93;;;21.90;99.90;;;;;;5073736;28;20199;-69
2022/11/19 09:44:25;;;;;;;11.70;2.80;;;22.00;99.90;;;;;;5073732;28;20174;-68
2022/11/19 09:47:12;;;;;;;11.73;2.87;;;22.10;99.90;;;;;;5073299;28;20323;-68
2022/11/19 09:49:58;;;;;;;9.07;2.47;;;22.10;99.90;;;;;;5073626;28;20638;-69
2022/11/19 09:52:28;;;;;;;9.80;2.70;;;22.00;99.90;;;;;;5073287;28;20199;-68
2022/11/19 09:54:57;;;;;;;7.93;2.33;;;22.00;99.90;;;;;;5073563;28;20226;-68
2022/11/19 09:57:32;;;;;;;9.07;2.40;;;22.00;99.90;;;;;;5073102;28;20266;-68
2022/11/19 10:00:01;;;;;;;9.50;2.53;;;22.00;99.90;;;;;;5073401;28;20181;-68
2022/11/19 10:02:29;;;;;;;12.10;2.60;;;22.00;99.90;;;;;;5072933;28;20250;-67
2022/11/19 10:04:58;;;;;;;10.40;2.77;;;22.00;99.90;;;;;;5072996;28;20588;-69
2022/11/19 10:07:36;;;;;;;11.57;2.70;;;21.90;99.90;;;;;;5073093;28;20179;-68
2022/11/19 10:10:16;;;;;;;10.57;2.50;;;21.90;99.90;;;;;;5073007;28;20201;-67
2022/11/19 10:13:23;;;;;;;6.80;2.23;;;21.80;99.90;;;;;;5073167;28;20277;-68
2022/11/19 10:16:08;;;;;;;7.43;2.33;;;21.80;99.90;;;;;;5073056;28;20210;-67
2022/11/19 10:18:54;;;;;;;8.10;1.97;;;21.80;99.90;;;;;;5073217;28;20176;-68
2022/11/19 10:21:55;;;;;;;5.60;1.80;;;21.80;99.90;;;;;;5072990;28;20217;-68
2022/11/19 10:24:37;;;;;;;11.17;2.63;;;21.70;99.90;;;;;;5072990;28;20175;-69
2022/11/19 10:27:14;;;;;;;12.67;2.33;;;21.60;99.90;;;;;;5073343;28;20172;-68
2022/11/19 10:29:42;;;;;;;9.80;2.57;;;21.50;99.90;;;;;;5073036;28;20211;-68
2022/11/19 10:32:37;;;;;;;9.50;2.03;;;21.40;99.90;;;;;;5074022;28;20172;-68
2022/11/19 10:35:15;;;;;;;13.33;2.70;;;21.30;99.90;;;;;;5076713;28;20223;-68
2022/11/19 10:38:00;;;;;;;10.90;2.33;;;21.20;99.90;;;;;;5077045;28;20183;-69
2022/11/19 10:40:44;;;;;;;6.33;2.27;;;21.10;99.90;;;;;;5076627;28;20168;-68
2022/11/19 10:43:14;;;;;;;9.20;2.40;;;21.10;99.90;;;;;;5076751;28;20191;-68
2022/11/19 10:45:42;;;;;;;6.23;2.30;;;21.00;99.90;;;;;;5076666;28;20180;-69
2022/11/19 10:48:20;;;;;;;13.90;2.53;;;21.00;99.90;;;;;;5076642;28;20184;-69
2022/11/19 10:50:48;;;;;;;6.70;1.90;;;21.00;99.90;;;;;;5076476;28;20269;-69
2022/11/19 10:53:23;;;;;;;7.23;2.10;;;21.00;99.90;;;;;;5077265;28;20259;-68
2022/11/19 10:56:12;;;;;;;8.40;2.20;;;21.00;99.90;;;;;;5076654;28;20269;-69
2022/11/19 10:59:07;;;;;;;7.60;2.30;;;21.00;99.90;;;;;;5072226;28;20192;-69
2022/11/19 11:01:41;;;;;;;7.40;2.23;;;20.90;99.90;;;;;;5076214;28;20211;-69
2022/11/19 11:04:20;;;;;;;5.47;1.83;;;20.80;99.90;;;;;;5076327;28;20248;-69
2022/11/19 11:06:52;;;;;;;3.57;2.03;;;20.80;99.90;;;;;;5076912;28;20195;-70
2022/11/19 11:09:41;;;;;;;9.90;2.60;;;20.80;99.90;;;;;;5076341;28;20164;-69
2022/11/19 11:15:21;;;;;;;8.47;2.10;;;20.80;99.90;;;;;;5076785;28;20202;-69
2022/11/19 11:18:03;;;;;;;10.03;2.37;;;20.80;99.90;;;;;;5076092;28;20264;-69
2022/11/19 11:20:35;;;;;;;5.60;2.70;;;20.80;99.90;;;;;;5075947;28;20244;-69
2022/11/19 11:23:24;;;;;;;6.50;2.07;;;20.80;99.90;;;;;;5076369;28;20182;-70
2022/11/19 11:26:11;;;;;;;10.50;2.80;;;20.80;99.90;;;;;;5075641;28;20180;-69
2022/11/19 11:29:07;;;;;;;9.00;2.53;;;20.80;99.90;;;;;;5075982;28;20175;-70
2022/11/19 11:31:42;;;;;;;7.47;2.30;;;20.70;99.90;;;;;;5075674;28;20203;-69
2022/11/19 11:34:31;;;;;;;8.90;2.20;;;20.70;99.90;;;;;;5075981;28;20513;-69
2022/11/19 11:37:02;;;;;;;10.00;2.10;;;20.60;99.90;;;;;;5075696;28;20645;-72
2022/11/19 11:39:36;;;;;;;8.07;2.17;;;20.50;99.90;;;;;;5075762;28;20175;-69
2022/11/19 11:42:10;;;;;;;7.33;2.30;;;20.50;99.90;;;;;;5075458;28;20260;-69
2022/11/19 11:44:48;;;;;;;11.33;2.50;;;20.40;99.90;;;;;;5075400;28;20555;-70
2022/11/19 11:47:18;;;;;;;9.77;2.57;;;20.40;99.90;;;;;;5075448;28;20173;-71
2022/11/19 11:50:04;;;;;;;7.17;2.50;;;20.40;99.90;;;;;;5075413;28;20530;-71
2022/11/19 11:52:53;;;;;;;9.60;2.67;;;20.30;99.90;;;;;;5074190;28;20184;-69
2022/11/19 11:55:24;;;;;;;7.70;2.77;;;20.30;99.90;;;;;;5075497;28;20212;-70
2022/11/19 11:57:59;;;;;;;6.90;2.53;;;20.30;99.90;;;;;;5075263;28;20173;-70
2022/11/19 12:00:32;;;;;;;14.63;2.73;;;20.40;99.90;;;;;;5074995;28;20550;-70
2022/11/19 12:03:15;;;;;;;10.07;2.50;;;20.40;99.90;;;;;;5074873;28;20192;-68
2022/11/19 12:06:07;;;;;;;9.03;2.17;;;20.40;99.90;;;;;;5075143;28;20188;-68
2022/11/19 12:09:07;;;;;;;10.43;3.60;;;20.60;99.90;;;;;;5075037;28;20220;-68
2022/11/19 12:11:57;;;;;;;11.93;2.37;;;20.60;99.90;;;;;;5075332;28;20172;-70
2022/11/19 12:15:15;;;;;;;9.23;2.23;;;20.70;99.90;;;;;;5074933;28;20694;-68
2022/11/19 12:18:00;;;;;;;8.73;2.70;;;20.90;99.90;;;;;;5075285;28;20628;-68
2022/11/19 12:20:55;;;;;;;6.67;2.30;;;21.10;99.90;;;;;;5075139;28;20175;-69
2022/11/19 12:23:52;;;;;;;10.90;2.27;;;21.00;99.90;;;;;;5074707;28;20236;-69
2022/11/19 12:26:39;;;;;;;11.90;3.17;;;20.90;99.90;;;;;;5090456;28;20215;-69
2022/11/19 12:29:37;;;;;;;8.30;2.20;;;20.70;99.90;;;;;;5074611;28;20652;-69
2022/11/19 12:32:22;;;;;;;11.13;2.63;;;20.70;99.90;;;;;;5074607;28;20259;-69
2022/11/19 12:34:53;;;;;;;9.23;2.77;;;20.50;99.90;;;;;;5074923;28;20173;-70
2022/11/19 12:37:44;;;;;;;9.00;2.70;;;20.40;99.90;;;;;;5074793;28;20182;-69
2022/11/19 12:40:22;;;;;;;11.07;2.63;;;20.40;99.90;;;;;;5074427;28;20168;-70
2022/11/19 12:43:05;;;;;;;14.87;3.57;;;20.30;99.90;;;;;;5074226;28;20187;-69
2022/11/19 12:45:52;;;;;;;8.83;3.10;;;20.20;99.90;;;;;;5074723;28;20176;-70
2022/11/19 12:48:35;;;;;;;11.57;2.27;;;20.20;99.90;;;;;;5073928;28;20647;-69
2022/11/19 12:51:18;;;;;;;8.97;2.67;;;20.10;99.90;;;;;;5074311;28;20186;-69
2022/11/19 12:54:06;;;;;;;9.47;2.40;;;20.10;99.90;;;;;;5074560;28;20224;-69
2022/11/19 12:57:00;;;;;;;9.70;3.27;;;20.10;99.90;;;;;;5073819;28;20180;-69
2022/11/19 12:59:49;;;;;;;12.57;2.90;;;20.10;99.90;;;;;;5065460;28;20194;-70
2022/11/19 13:02:30;;;;;;;14.50;2.97;;;20.00;99.90;;;;;;5074283;28;20267;-69
2022/11/19 13:05:22;;;;;;;5.90;2.30;;;19.80;99.90;;;;;;5073829;28;20717;-69
2022/11/19 13:07:56;;;;;;;16.97;2.93;;;19.60;99.90;;;;;;5073780;28;20184;-70
2022/11/19 13:10:25;;;;;;;8.63;2.73;;;19.60;99.90;;;;;;5073714;28;20176;-69
2022/11/19 13:12:56;;;;;;;14.13;3.30;;;19.50;99.90;;;;;;5073638;28;20195;-70
2022/11/19 13:15:45;;;;;;;8.83;2.27;;;19.50;99.90;;;;;;5073794;28;20188;-70
2022/11/19 13:18:17;;;;;;;8.17;2.70;;;19.30;99.90;;;;;;5073806;28;20172;-69
2022/11/19 13:21:00;;;;;;;7.97;2.70;;;19.20;99.90;;;;;;5073770;28;20251;-70
2022/11/19 13:23:41;;;;;;;9.20;2.73;;;19.10;99.90;;;;;;5073723;28;20222;-70
2022/11/19 13:26:23;;;;;;;6.23;2.47;;;19.00;99.90;;;;;;5073880;28;20199;-68
2022/11/19 13:28:51;;;;;;;7.90;2.70;;;19.00;99.90;;;;;;5073759;28;20625;-68
2022/11/19 13:31:46;;;;;;;10.57;2.63;;;18.90;99.90;;;;;;5073501;28;20174;-68
2022/11/19 13:34:20;;;;;;;7.47;2.60;;;18.90;99.90;;;;;;5073597;28;20183;-68
2022/11/19 13:37:15;;;;;;;7.07;2.80;;;18.80;99.90;;;;;;5073816;28;20263;-69
2022/11/19 13:40:11;;;;;;;9.83;3.07;;;18.70;99.90;;;;;;5073825;28;20259;-69